sensor_id;sensor_type;location;lat;lon;timestamp;temperature;humidity
23532;DHT22;11943;52.270;20.978;2023-03-14T00:00:34;10.10;99.90
23532;DHT22;11943;52.270;20.978;2023-03-14T00:02:59;10.10;99.90
23532;DHT22;11943;52.270;20.978;2023-03-14T00:05:25;10.10;99.90
23532;DHT22;11943;52.270;20.978;2023-03-14T00:07:51;10.00;99.90
23532;DHT22;11943;52.270;20.978;2023-03-14T00:10:17;10.10;99.90
23532;DHT22;11943;52.270;20.978;2023-03-14T00:12:43;10.00;99.90
23532;DHT22;11943;52.270;20.978;2023-03-14T00:15:10;10.00;99.90
23532;DHT22;11943;52.270;20.978;2023-03-14T00:17:36;10.00;99.90
23532;DHT22;11943;52.270;20.978;2023-03-14T00:20:03;9.90;99.90
23532;DHT22;11943;52.270;20.978;2023-03-14T00:22:34;9.90;99.90
23532;DHT22;11943;52.270;20.978;2023-03-14T00:25:00;9.90;99.90
23532;DHT22;11943;52.270;20.978;2023-03-14T00:27:26;9.80;99.90
23532;DHT22;11943;52.270;20.978;2023-03-14T00:29:52;9.70;99.90
23532;DHT22;11943;52.270;20.978;2023-03-14T00:32:17;9.70;99.90
23532;DHT22;11943;52.270;20.978;2023-03-14T00:34:43;9.70;99.90
23532;DHT22;11943;52.270;20.978;2023-03-14T00:37:08;9.60;99.90
23532;DHT22;11943;52.270;20.978;2023-03-14T00:39:34;9.60;99.90
23532;DHT22;11943;52.270;20.978;2023-03-14T00:42:00;9.60;99.90
23532;DHT22;11943;52.270;20.978;2023-03-14T00:44:25;9.50;99.90
23532;DHT22;11943;52.270;20.978;2023-03-14T00:46:51;9.50;99.90
23532;DHT22;11943;52.270;20.978;2023-03-14T00:49:17;9.50;99.90
23532;DHT22;11943;52.270;20.978;2023-03-14T00:51:42;9.50;99.90
23532;DHT22;11943;52.270;20.978;2023-03-14T00:54:08;9.40;99.90
23532;DHT22;11943;52.270;20.978;2023-03-14T00:56:33;9.40;99.90
23532;DHT22;11943;52.270;20.978;2023-03-14T00:58:59;9.30;99.90
23532;DHT22;11943;52.270;20.978;2023-03-14T01:01:25;9.30;99.90
23532;DHT22;11943;52.270;20.978;2023-03-14T01:03:55;9.20;99.90
23532;DHT22;11943;52.270;20.978;2023-03-14T01:06:25;9.30;99.90
23532;DHT22;11943;52.270;20.978;2023-03-14T01:08:52;9.20;99.90
23532;DHT22;11943;52.270;20.978;2023-03-14T01:11:21;9.20;99.90
23532;DHT22;11943;52.270;20.978;2023-03-14T01:13:47;9.20;99.90
23532;DHT22;11943;52.270;20.978;2023-03-14T01:16:13;9.20;99.90
23532;DHT22;11943;52.270;20.978;2023-03-14T01:18:40;9.10;99.90
23532;DHT22;11943;52.270;20.978;2023-03-14T01:21:22;9.10;99.90
23532;DHT22;11943;52.270;20.978;2023-03-14T01:23:48;9.00;99.90
23532;DHT22;11943;52.270;20.978;2023-03-14T01:26:16;9.00;99.90
23532;DHT22;11943;52.270;20.978;2023-03-14T01:28:44;8.90;99.90
23532;DHT22;11943;52.270;20.978;2023-03-14T01:31:11;8.90;99.90
23532;DHT22;11943;52.270;20.978;2023-03-14T01:33:37;8.90;99.90
23532;DHT22;11943;52.270;20.978;2023-03-14T01:36:04;8.90;99.90
23532;DHT22;11943;52.270;20.978;2023-03-14T01:38:34;8.90;99.90
23532;DHT22;11943;52.270;20.978;2023-03-14T01:41:00;8.90;99.90
23532;DHT22;11943;52.270;20.978;2023-03-14T01:43:27;8.80;99.90
23532;DHT22;11943;52.270;20.978;2023-03-14T01:48:47;8.90;99.90
23532;DHT22;11943;52.270;20.978;2023-03-14T01:54:22;8.80;99.90
23532;DHT22;11943;52.270;20.978;2023-03-14T01:56:57;8.80;99.90
23532;DHT22;11943;52.270;20.978;2023-03-14T01:59:24;8.80;99.90
23532;DHT22;11943;52.270;20.978;2023-03-14T02:01:51;8.80;99.90
23532;DHT22;11943;52.270;20.978;2023-03-14T02:04:18;8.70;99.90
23532;DHT22;11943;52.270;20.978;2023-03-14T02:09:40;8.70;99.90
23532;DHT22;11943;52.270;20.978;2023-03-14T02:12:08;8.60;99.90
23532;DHT22;11943;52.270;20.978;2023-03-14T02:14:35;8.50;99.90
23532;DHT22;11943;52.270;20.978;2023-03-14T02:17:03;8.50;99.90
23532;DHT22;11943;52.270;20.978;2023-03-14T02:22:10;8.40;99.90
23532;DHT22;11943;52.270;20.978;2023-03-14T02:27:34;8.40;99.90
23532;DHT22;11943;52.270;20.978;2023-03-14T02:30:06;8.30;99.90
23532;DHT22;11943;52.270;20.978;2023-03-14T02:32:34;8.30;99.90
23532;DHT22;11943;52.270;20.978;2023-03-14T02:35:05;8.30;99.90
23532;DHT22;11943;52.270;20.978;2023-03-14T02:40:31;8.30;99.90
23532;DHT22;11943;52.270;20.978;2023-03-14T02:42:57;8.20;99.90
23532;DHT22;11943;52.270;20.978;2023-03-14T02:45:28;8.20;99.90
23532;DHT22;11943;52.270;20.978;2023-03-14T02:47:59;8.20;99.90
23532;DHT22;11943;52.270;20.978;2023-03-14T02:50:30;8.20;99.90
23532;DHT22;11943;52.270;20.978;2023-03-14T02:52:58;8.20;99.90
23532;DHT22;11943;52.270;20.978;2023-03-14T02:55:25;8.20;99.90
23532;DHT22;11943;52.270;20.978;2023-03-14T02:57:52;8.10;99.90
23532;DHT22;11943;52.270;20.978;2023-03-14T03:00:18;8.10;99.90
23532;DHT22;11943;52.270;20.978;2023-03-14T03:02:45;8.10;99.90
23532;DHT22;11943;52.270;20.978;2023-03-14T03:05:11;8.10;99.90
23532;DHT22;11943;52.270;20.978;2023-03-14T03:07:36;8.20;99.90
23532;DHT22;11943;52.270;20.978;2023-03-14T03:10:03;8.20;99.90
23532;DHT22;11943;52.270;20.978;2023-03-14T03:12:29;8.20;99.90
23532;DHT22;11943;52.270;20.978;2023-03-14T03:14:55;8.20;99.90
23532;DHT22;11943;52.270;20.978;2023-03-14T03:17:20;8.20;99.90
23532;DHT22;11943;52.270;20.978;2023-03-14T03:19:46;8.20;99.90
23532;DHT22;11943;52.270;20.978;2023-03-14T03:22:12;8.20;99.90
23532;DHT22;11943;52.270;20.978;2023-03-14T03:24:37;8.20;99.90
23532;DHT22;11943;52.270;20.978;2023-03-14T03:27:03;8.10;99.90
23532;DHT22;11943;52.270;20.978;2023-03-14T03:29:29;8.10;99.90
23532;DHT22;11943;52.270;20.978;2023-03-14T03:31:55;8.10;99.90
23532;DHT22;11943;52.270;20.978;2023-03-14T03:34:21;8.00;99.90
23532;DHT22;11943;52.270;20.978;2023-03-14T03:36:46;8.00;99.90
23532;DHT22;11943;52.270;20.978;2023-03-14T03:39:12;8.00;99.90
23532;DHT22;11943;52.270;20.978;2023-03-14T03:41:37;8.00;99.90
23532;DHT22;11943;52.270;20.978;2023-03-14T03:44:03;8.00;99.90
23532;DHT22;11943;52.270;20.978;2023-03-14T03:46:29;8.00;99.90
23532;DHT22;11943;52.270;20.978;2023-03-14T03:48:59;7.90;99.90
23532;DHT22;11943;52.270;20.978;2023-03-14T03:51:25;7.90;99.90
23532;DHT22;11943;52.270;20.978;2023-03-14T03:53:51;7.90;99.90
23532;DHT22;11943;52.270;20.978;2023-03-14T03:56:17;7.90;99.90
23532;DHT22;11943;52.270;20.978;2023-03-14T03:58:43;7.90;99.90
23532;DHT22;11943;52.270;20.978;2023-03-14T04:01:09;7.90;99.90
23532;DHT22;11943;52.270;20.978;2023-03-14T04:03:36;7.90;99.90
23532;DHT22;11943;52.270;20.978;2023-03-14T04:06:13;7.90;99.90
23532;DHT22;11943;52.270;20.978;2023-03-14T04:08:39;7.90;99.90
23532;DHT22;11943;52.270;20.978;2023-03-14T04:11:07;7.80;99.90
23532;DHT22;11943;52.270;20.978;2023-03-14T04:13:32;7.80;99.90
23532;DHT22;11943;52.270;20.978;2023-03-14T04:15:58;7.80;99.90
23532;DHT22;11943;52.270;20.978;2023-03-14T04:18:24;7.80;99.90
23532;DHT22;11943;52.270;20.978;2023-03-14T04:20:57;7.80;99.90
23532;DHT22;11943;52.270;20.978;2023-03-14T04:23:24;7.80;99.90
23532;DHT22;11943;52.270;20.978;2023-03-14T04:25:51;7.70;99.90
23532;DHT22;11943;52.270;20.978;2023-03-14T04:28:17;7.80;99.90
23532;DHT22;11943;52.270;20.978;2023-03-14T04:30:43;7.80;99.90
23532;DHT22;11943;52.270;20.978;2023-03-14T04:33:08;7.80;99.90
23532;DHT22;11943;52.270;20.978;2023-03-14T04:35:35;7.70;99.90
23532;DHT22;11943;52.270;20.978;2023-03-14T04:38:01;7.70;99.90
23532;DHT22;11943;52.270;20.978;2023-03-14T04:40:26;7.70;99.90
23532;DHT22;11943;52.270;20.978;2023-03-14T04:42:52;7.60;99.90
23532;DHT22;11943;52.270;20.978;2023-03-14T04:45:18;7.60;99.90
23532;DHT22;11943;52.270;20.978;2023-03-14T04:47:43;7.60;99.90
23532;DHT22;11943;52.270;20.978;2023-03-14T04:50:10;7.60;99.90
23532;DHT22;11943;52.270;20.978;2023-03-14T04:52:36;7.70;99.90
23532;DHT22;11943;52.270;20.978;2023-03-14T04:55:02;7.70;99.90
23532;DHT22;11943;52.270;20.978;2023-03-14T04:57:27;7.70;99.90
23532;DHT22;11943;52.270;20.978;2023-03-14T04:59:53;7.80;99.90
23532;DHT22;11943;52.270;20.978;2023-03-14T05:02:20;7.80;99.90
23532;DHT22;11943;52.270;20.978;2023-03-14T05:04:45;7.90;99.90
23532;DHT22;11943;52.270;20.978;2023-03-14T05:07:11;8.00;99.90
23532;DHT22;11943;52.270;20.978;2023-03-14T05:09:36;8.00;99.90
23532;DHT22;11943;52.270;20.978;2023-03-14T05:12:02;8.00;99.90
23532;DHT22;11943;52.270;20.978;2023-03-14T05:14:28;8.20;99.90
23532;DHT22;11943;52.270;20.978;2023-03-14T05:16:53;8.20;99.90
23532;DHT22;11943;52.270;20.978;2023-03-14T05:19:19;8.20;99.90
23532;DHT22;11943;52.270;20.978;2023-03-14T05:21:45;8.30;99.90
23532;DHT22;11943;52.270;20.978;2023-03-14T05:24:10;8.30;99.90
23532;DHT22;11943;52.270;20.978;2023-03-14T05:26:36;8.40;99.90
23532;DHT22;11943;52.270;20.978;2023-03-14T05:29:02;8.50;99.90
23532;DHT22;11943;52.270;20.978;2023-03-14T05:31:27;8.50;99.70
23532;DHT22;11943;52.270;20.978;2023-03-14T05:33:53;8.50;99.80
23532;DHT22;11943;52.270;20.978;2023-03-14T05:36:18;8.50;99.70
23532;DHT22;11943;52.270;20.978;2023-03-14T05:38:44;8.50;99.90
23532;DHT22;11943;52.270;20.978;2023-03-14T05:41:10;8.50;99.80
23532;DHT22;11943;52.270;20.978;2023-03-14T05:43:35;8.40;99.60
23532;DHT22;11943;52.270;20.978;2023-03-14T05:46:01;8.40;99.70
23532;DHT22;11943;52.270;20.978;2023-03-14T05:48:26;8.50;99.60
23532;DHT22;11943;52.270;20.978;2023-03-14T05:50:56;8.60;98.80
23532;DHT22;11943;52.270;20.978;2023-03-14T05:53:22;8.80;98.00
23532;DHT22;11943;52.270;20.978;2023-03-14T05:55:52;8.90;97.80
23532;DHT22;11943;52.270;20.978;2023-03-14T05:58:17;9.00;98.00
23532;DHT22;11943;52.270;20.978;2023-03-14T06:00:43;9.20;96.30
23532;DHT22;11943;52.270;20.978;2023-03-14T06:03:09;9.30;95.30
23532;DHT22;11943;52.270;20.978;2023-03-14T06:05:34;9.40;95.10
23532;DHT22;11943;52.270;20.978;2023-03-14T06:08:00;9.40;94.80
23532;DHT22;11943;52.270;20.978;2023-03-14T06:10:25;9.50;94.30
23532;DHT22;11943;52.270;20.978;2023-03-14T06:12:51;9.60;93.90
23532;DHT22;11943;52.270;20.978;2023-03-14T06:15:17;9.60;93.50
23532;DHT22;11943;52.270;20.978;2023-03-14T06:17:42;9.50;93.20
23532;DHT22;11943;52.270;20.978;2023-03-14T06:20:09;9.40;93.80
23532;DHT22;11943;52.270;20.978;2023-03-14T06:22:34;9.30;93.70
23532;DHT22;11943;52.270;20.978;2023-03-14T06:25:00;9.30;93.90
23532;DHT22;11943;52.270;20.978;2023-03-14T06:27:26;9.30;94.10
23532;DHT22;11943;52.270;20.978;2023-03-14T06:29:51;9.30;93.80
23532;DHT22;11943;52.270;20.978;2023-03-14T06:32:17;9.40;93.70
23532;DHT22;11943;52.270;20.978;2023-03-14T06:34:43;9.40;93.90
23532;DHT22;11943;52.270;20.978;2023-03-14T06:37:09;9.40;93.60
23532;DHT22;11943;52.270;20.978;2023-03-14T06:39:35;9.40;93.70
23532;DHT22;11943;52.270;20.978;2023-03-14T06:42:00;9.50;93.30
23532;DHT22;11943;52.270;20.978;2023-03-14T06:44:26;9.50;93.10
23532;DHT22;11943;52.270;20.978;2023-03-14T06:46:51;9.50;93.10
23532;DHT22;11943;52.270;20.978;2023-03-14T06:49:17;9.60;93.20
23532;DHT22;11943;52.270;20.978;2023-03-14T06:51:43;9.80;93.30
23532;DHT22;11943;52.270;20.978;2023-03-14T06:54:08;10.00;93.30
23532;DHT22;11943;52.270;20.978;2023-03-14T06:56:34;10.20;93.30
23532;DHT22;11943;52.270;20.978;2023-03-14T06:58:59;10.40;92.40
23532;DHT22;11943;52.270;20.978;2023-03-14T07:01:30;10.40;91.30
23532;DHT22;11943;52.270;20.978;2023-03-14T07:03:57;10.50;90.90
23532;DHT22;11943;52.270;20.978;2023-03-14T07:06:24;10.60;90.50
23532;DHT22;11943;52.270;20.978;2023-03-14T07:08:50;10.70;90.60
23532;DHT22;11943;52.270;20.978;2023-03-14T07:11:16;10.80;90.60
23532;DHT22;11943;52.270;20.978;2023-03-14T07:13:42;10.80;90.30
23532;DHT22;11943;52.270;20.978;2023-03-14T07:16:08;10.80;90.00
23532;DHT22;11943;52.270;20.978;2023-03-14T07:18:34;10.80;89.80
23532;DHT22;11943;52.270;20.978;2023-03-14T07:21:00;10.90;90.10
23532;DHT22;11943;52.270;20.978;2023-03-14T07:23:26;10.90;89.90
23532;DHT22;11943;52.270;20.978;2023-03-14T07:25:51;10.90;89.40
23532;DHT22;11943;52.270;20.978;2023-03-14T07:28:19;11.00;88.80
23532;DHT22;11943;52.270;20.978;2023-03-14T07:30:46;11.20;88.40
23532;DHT22;11943;52.270;20.978;2023-03-14T07:33:12;11.30;87.60
23532;DHT22;11943;52.270;20.978;2023-03-14T07:35:38;11.40;87.20
23532;DHT22;11943;52.270;20.978;2023-03-14T07:38:04;11.60;88.10
23532;DHT22;11943;52.270;20.978;2023-03-14T07:40:29;11.90;87.80
23532;DHT22;11943;52.270;20.978;2023-03-14T07:42:55;12.10;85.20
23532;DHT22;11943;52.270;20.978;2023-03-14T07:45:21;12.10;84.20
23532;DHT22;11943;52.270;20.978;2023-03-14T07:47:47;12.20;84.80
23532;DHT22;11943;52.270;20.978;2023-03-14T07:50:13;12.20;84.40
23532;DHT22;11943;52.270;20.978;2023-03-14T07:52:39;12.40;84.10
23532;DHT22;11943;52.270;20.978;2023-03-14T07:55:05;12.30;83.50
23532;DHT22;11943;52.270;20.978;2023-03-14T07:57:31;12.40;84.50
23532;DHT22;11943;52.270;20.978;2023-03-14T07:59:56;12.40;83.70
23532;DHT22;11943;52.270;20.978;2023-03-14T08:02:22;12.70;83.70
23532;DHT22;11943;52.270;20.978;2023-03-14T08:04:49;12.70;82.20
23532;DHT22;11943;52.270;20.978;2023-03-14T08:07:15;13.00;82.00
23532;DHT22;11943;52.270;20.978;2023-03-14T08:09:41;13.00;80.80
23532;DHT22;11943;52.270;20.978;2023-03-14T08:12:07;13.10;80.20
23532;DHT22;11943;52.270;20.978;2023-03-14T08:14:32;13.20;80.30
23532;DHT22;11943;52.270;20.978;2023-03-14T08:16:58;13.30;78.40
23532;DHT22;11943;52.270;20.978;2023-03-14T08:19:24;13.50;79.10
23532;DHT22;11943;52.270;20.978;2023-03-14T08:21:50;13.50;78.70
23532;DHT22;11943;52.270;20.978;2023-03-14T08:24:16;13.50;77.00
23532;DHT22;11943;52.270;20.978;2023-03-14T08:26:42;13.60;78.50
23532;DHT22;11943;52.270;20.978;2023-03-14T08:29:07;13.70;77.00
23532;DHT22;11943;52.270;20.978;2023-03-14T08:31:34;13.60;76.80
23532;DHT22;11943;52.270;20.978;2023-03-14T08:34:01;13.70;78.10
23532;DHT22;11943;52.270;20.978;2023-03-14T08:36:27;13.70;77.60
23532;DHT22;11943;52.270;20.978;2023-03-14T08:38:53;13.80;76.90
23532;DHT22;11943;52.270;20.978;2023-03-14T08:41:19;13.70;76.40
23532;DHT22;11943;52.270;20.978;2023-03-14T08:43:44;13.60;76.30
23532;DHT22;11943;52.270;20.978;2023-03-14T08:46:10;13.70;76.10
23532;DHT22;11943;52.270;20.978;2023-03-14T08:48:35;13.80;76.10
23532;DHT22;11943;52.270;20.978;2023-03-14T08:51:12;13.90;75.40
23532;DHT22;11943;52.270;20.978;2023-03-14T08:53:39;14.00;75.20
23532;DHT22;11943;52.270;20.978;2023-03-14T08:56:05;14.10;74.10
23532;DHT22;11943;52.270;20.978;2023-03-14T08:58:32;14.30;74.30
23532;DHT22;11943;52.270;20.978;2023-03-14T09:00:58;14.50;72.60
23532;DHT22;11943;52.270;20.978;2023-03-14T09:03:24;14.60;73.60
23532;DHT22;11943;52.270;20.978;2023-03-14T09:05:51;14.90;73.20
23532;DHT22;11943;52.270;20.978;2023-03-14T09:08:17;15.10;71.20
23532;DHT22;11943;52.270;20.978;2023-03-14T09:10:43;15.00;70.00
23532;DHT22;11943;52.270;20.978;2023-03-14T09:13:08;14.70;70.40
23532;DHT22;11943;52.270;20.978;2023-03-14T09:15:34;14.70;71.90
23532;DHT22;11943;52.270;20.978;2023-03-14T09:18:00;14.60;72.30
23532;DHT22;11943;52.270;20.978;2023-03-14T09:20:25;14.40;72.50
23532;DHT22;11943;52.270;20.978;2023-03-14T09:22:51;14.40;72.50
23532;DHT22;11943;52.270;20.978;2023-03-14T09:25:17;14.30;72.90
23532;DHT22;11943;52.270;20.978;2023-03-14T09:27:42;14.40;73.50
23532;DHT22;11943;52.270;20.978;2023-03-14T09:30:09;14.50;72.00
23532;DHT22;11943;52.270;20.978;2023-03-14T09:32:34;14.70;72.00
23532;DHT22;11943;52.270;20.978;2023-03-14T09:35:00;14.80;71.50
23532;DHT22;11943;52.270;20.978;2023-03-14T09:37:26;14.80;70.90
23532;DHT22;11943;52.270;20.978;2023-03-14T09:39:52;15.10;71.50
23532;DHT22;11943;52.270;20.978;2023-03-14T09:42:23;15.30;69.50
23532;DHT22;11943;52.270;20.978;2023-03-14T09:47:16;15.30;68.70
23532;DHT22;11943;52.270;20.978;2023-03-14T09:49:45;15.40;68.60
23532;DHT22;11943;52.270;20.978;2023-03-14T09:52:15;15.50;69.00
23532;DHT22;11943;52.270;20.978;2023-03-14T09:54:50;15.70;66.90
23532;DHT22;11943;52.270;20.978;2023-03-14T09:57:19;15.50;66.10
23532;DHT22;11943;52.270;20.978;2023-03-14T09:59:47;15.50;68.00
23532;DHT22;11943;52.270;20.978;2023-03-14T10:02:24;15.40;67.50
23532;DHT22;11943;52.270;20.978;2023-03-14T10:04:53;15.50;67.10
23532;DHT22;11943;52.270;20.978;2023-03-14T10:07:30;15.70;67.80
23532;DHT22;11943;52.270;20.978;2023-03-14T10:09:56;16.00;66.80
23532;DHT22;11943;52.270;20.978;2023-03-14T10:12:34;16.10;66.60
23532;DHT22;11943;52.270;20.978;2023-03-14T10:15:11;16.30;65.20
23532;DHT22;11943;52.270;20.978;2023-03-14T10:17:44;16.30;65.10
23532;DHT22;11943;52.270;20.978;2023-03-14T10:23:20;16.00;65.00
23532;DHT22;11943;52.270;20.978;2023-03-14T10:26:15;15.70;66.00
23532;DHT22;11943;52.270;20.978;2023-03-14T10:28:46;15.60;67.50
23532;DHT22;11943;52.270;20.978;2023-03-14T10:31:13;15.70;68.30
23532;DHT22;11943;52.270;20.978;2023-03-14T10:33:39;15.70;67.70
23532;DHT22;11943;52.270;20.978;2023-03-14T10:36:24;15.50;67.40
23532;DHT22;11943;52.270;20.978;2023-03-14T10:38:58;15.50;67.90
23532;DHT22;11943;52.270;20.978;2023-03-14T10:41:31;15.70;68.40
23532;DHT22;11943;52.270;20.978;2023-03-14T10:43:59;15.70;67.40
23532;DHT22;11943;52.270;20.978;2023-03-14T10:46:30;15.90;67.10
23532;DHT22;11943;52.270;20.978;2023-03-14T10:48:56;16.20;66.10
23532;DHT22;11943;52.270;20.978;2023-03-14T10:51:26;16.20;65.70
23532;DHT22;11943;52.270;20.978;2023-03-14T10:56:24;16.40;65.30
23532;DHT22;11943;52.270;20.978;2023-03-14T10:58:56;16.40;65.90
23532;DHT22;11943;52.270;20.978;2023-03-14T11:06:59;16.00;65.60
23532;DHT22;11943;52.270;20.978;2023-03-14T11:09:42;15.80;66.90
23532;DHT22;11943;52.270;20.978;2023-03-14T11:15:10;15.70;67.40
23532;DHT22;11943;52.270;20.978;2023-03-14T11:18:00;15.50;67.00
23532;DHT22;11943;52.270;20.978;2023-03-14T11:23:29;15.50;67.80
23532;DHT22;11943;52.270;20.978;2023-03-14T11:28:48;15.50;68.20
23532;DHT22;11943;52.270;20.978;2023-03-14T11:31:29;15.10;68.40
23532;DHT22;11943;52.270;20.978;2023-03-14T11:36:38;15.00;69.40
23532;DHT22;11943;52.270;20.978;2023-03-14T11:39:13;14.90;70.80
23532;DHT22;11943;52.270;20.978;2023-03-14T11:41:41;14.90;70.20
23532;DHT22;11943;52.270;20.978;2023-03-14T11:44:20;14.80;70.70
23532;DHT22;11943;52.270;20.978;2023-03-14T11:46:55;14.80;70.30
23532;DHT22;11943;52.270;20.978;2023-03-14T11:49:36;14.70;70.80
23532;DHT22;11943;52.270;20.978;2023-03-14T11:52:28;14.50;71.40
23532;DHT22;11943;52.270;20.978;2023-03-14T11:55:17;14.60;71.60
23532;DHT22;11943;52.270;20.978;2023-03-14T11:57:45;14.60;71.80
23532;DHT22;11943;52.270;20.978;2023-03-14T12:00:20;14.70;72.10
23532;DHT22;11943;52.270;20.978;2023-03-14T12:03:11;14.80;71.80
23532;DHT22;11943;52.270;20.978;2023-03-14T12:08:42;15.10;71.50
23532;DHT22;11943;52.270;20.978;2023-03-14T12:13:41;15.20;70.50
23532;DHT22;11943;52.270;20.978;2023-03-14T12:18:46;15.70;69.50
23532;DHT22;11943;52.270;20.978;2023-03-14T12:21:12;15.90;70.00
23532;DHT22;11943;52.270;20.978;2023-03-14T12:23:54;16.00;68.70
23532;DHT22;11943;52.270;20.978;2023-03-14T12:26:24;15.80;68.40
23532;DHT22;11943;52.270;20.978;2023-03-14T12:42:37;14.50;74.40
23532;DHT22;11943;52.270;20.978;2023-03-14T12:48:21;14.30;75.50
23532;DHT22;11943;52.270;20.978;2023-03-14T12:50:56;14.30;77.00
23532;DHT22;11943;52.270;20.978;2023-03-14T12:59:02;14.10;80.40
23532;DHT22;11943;52.270;20.978;2023-03-14T13:01:33;13.80;83.40
23532;DHT22;11943;52.270;20.978;2023-03-14T13:04:07;13.50;85.60
23532;DHT22;11943;52.270;20.978;2023-03-14T13:06:54;13.30;89.00
23532;DHT22;11943;52.270;20.978;2023-03-14T13:12:17;12.80;96.90
23532;DHT22;11943;52.270;20.978;2023-03-14T13:14:48;12.60;99.80
23532;DHT22;11943;52.270;20.978;2023-03-14T13:17:18;12.50;99.90
23532;DHT22;11943;52.270;20.978;2023-03-14T13:19:51;12.40;99.90
23532;DHT22;11943;52.270;20.978;2023-03-14T13:22:38;12.30;99.90
23532;DHT22;11943;52.270;20.978;2023-03-14T13:25:06;12.40;99.90
23532;DHT22;11943;52.270;20.978;2023-03-14T13:27:34;12.40;99.90
23532;DHT22;11943;52.270;20.978;2023-03-14T13:32:43;12.20;99.90
23532;DHT22;11943;52.270;20.978;2023-03-14T13:35:22;12.20;99.90
23532;DHT22;11943;52.270;20.978;2023-03-14T13:37:54;12.10;99.90
23532;DHT22;11943;52.270;20.978;2023-03-14T13:40:26;12.00;99.90
23532;DHT22;11943;52.270;20.978;2023-03-14T13:43:50;12.10;99.90
23532;DHT22;11943;52.270;20.978;2023-03-14T13:46:15;12.00;99.90
23532;DHT22;11943;52.270;20.978;2023-03-14T13:48:59;12.00;99.90
23532;DHT22;11943;52.270;20.978;2023-03-14T13:51:26;11.80;99.90
23532;DHT22;11943;52.270;20.978;2023-03-14T13:53:58;11.70;99.90
23532;DHT22;11943;52.270;20.978;2023-03-14T13:56:27;11.70;99.90
23532;DHT22;11943;52.270;20.978;2023-03-14T13:58:53;11.70;99.90
23532;DHT22;11943;52.270;20.978;2023-03-14T14:01:34;11.70;99.90
23532;DHT22;11943;52.270;20.978;2023-03-14T14:04:15;11.60;99.90
23532;DHT22;11943;52.270;20.978;2023-03-14T14:06:58;11.60;99.90
23532;DHT22;11943;52.270;20.978;2023-03-14T14:09:27;11.50;99.90
23532;DHT22;11943;52.270;20.978;2023-03-14T14:14:31;11.40;99.90
23532;DHT22;11943;52.270;20.978;2023-03-14T14:16:59;11.40;99.90
23532;DHT22;11943;52.270;20.978;2023-03-14T14:19:27;11.30;99.90
23532;DHT22;11943;52.270;20.978;2023-03-14T14:21:54;11.30;99.90
23532;DHT22;11943;52.270;20.978;2023-03-14T14:24:22;11.30;99.90
23532;DHT22;11943;52.270;20.978;2023-03-14T14:27:12;11.30;99.90
23532;DHT22;11943;52.270;20.978;2023-03-14T14:29:39;11.20;99.90
23532;DHT22;11943;52.270;20.978;2023-03-14T14:35:02;11.30;99.90
23532;DHT22;11943;52.270;20.978;2023-03-14T14:37:32;11.20;99.90
23532;DHT22;11943;52.270;20.978;2023-03-14T14:40:01;11.20;99.90
23532;DHT22;11943;52.270;20.978;2023-03-14T14:42:32;11.20;99.90
23532;DHT22;11943;52.270;20.978;2023-03-14T14:44:58;11.20;99.90
23532;DHT22;11943;52.270;20.978;2023-03-14T14:47:26;11.20;99.90
23532;DHT22;11943;52.270;20.978;2023-03-14T14:49:54;11.20;99.90
23532;DHT22;11943;52.270;20.978;2023-03-14T14:52:33;11.10;99.90
23532;DHT22;11943;52.270;20.978;2023-03-14T14:55:00;11.20;99.90
23532;DHT22;11943;52.270;20.978;2023-03-14T14:57:32;11.20;99.90
23532;DHT22;11943;52.270;20.978;2023-03-14T15:00:05;11.20;99.90
23532;DHT22;11943;52.270;20.978;2023-03-14T15:02:58;11.20;99.90
23532;DHT22;11943;52.270;20.978;2023-03-14T15:05:27;11.20;99.90
23532;DHT22;11943;52.270;20.978;2023-03-14T15:07:55;11.20;99.90
23532;DHT22;11943;52.270;20.978;2023-03-14T15:10:23;11.20;99.90
23532;DHT22;11943;52.270;20.978;2023-03-14T15:12:49;11.10;99.90
23532;DHT22;11943;52.270;20.978;2023-03-14T15:15:16;11.10;99.90
23532;DHT22;11943;52.270;20.978;2023-03-14T15:17:43;11.10;99.90
23532;DHT22;11943;52.270;20.978;2023-03-14T15:20:17;11.00;99.90
23532;DHT22;11943;52.270;20.978;2023-03-14T15:22:44;11.00;99.90
23532;DHT22;11943;52.270;20.978;2023-03-14T15:25:11;11.00;99.90
23532;DHT22;11943;52.270;20.978;2023-03-14T15:27:37;10.90;99.90
23532;DHT22;11943;52.270;20.978;2023-03-14T15:30:13;11.00;99.90
23532;DHT22;11943;52.270;20.978;2023-03-14T15:32:39;11.00;99.90
23532;DHT22;11943;52.270;20.978;2023-03-14T15:35:05;10.90;99.90
23532;DHT22;11943;52.270;20.978;2023-03-14T15:37:32;10.90;99.90
23532;DHT22;11943;52.270;20.978;2023-03-14T15:39:58;10.90;99.90
23532;DHT22;11943;52.270;20.978;2023-03-14T15:42:24;10.90;99.90
23532;DHT22;11943;52.270;20.978;2023-03-14T15:44:50;10.80;99.90
23532;DHT22;11943;52.270;20.978;2023-03-14T15:47:16;10.80;99.90
23532;DHT22;11943;52.270;20.978;2023-03-14T15:49:41;10.80;99.90
23532;DHT22;11943;52.270;20.978;2023-03-14T15:52:08;10.80;99.90
23532;DHT22;11943;52.270;20.978;2023-03-14T15:54:34;10.80;99.90
23532;DHT22;11943;52.270;20.978;2023-03-14T15:57:00;10.70;99.90
23532;DHT22;11943;52.270;20.978;2023-03-14T15:59:26;10.70;99.90
23532;DHT22;11943;52.270;20.978;2023-03-14T16:01:51;10.70;99.90
23532;DHT22;11943;52.270;20.978;2023-03-14T16:04:17;10.70;99.90
23532;DHT22;11943;52.270;20.978;2023-03-14T16:06:44;10.70;99.90
23532;DHT22;11943;52.270;20.978;2023-03-14T16:09:13;10.70;99.90
23532;DHT22;11943;52.270;20.978;2023-03-14T16:11:39;10.70;99.90
23532;DHT22;11943;52.270;20.978;2023-03-14T16:14:04;10.70;99.90
23532;DHT22;11943;52.270;20.978;2023-03-14T16:16:31;10.70;99.90
23532;DHT22;11943;52.270;20.978;2023-03-14T16:18:56;10.70;99.90
23532;DHT22;11943;52.270;20.978;2023-03-14T16:21:22;10.70;99.90
23532;DHT22;11943;52.270;20.978;2023-03-14T16:23:48;10.70;99.90
23532;DHT22;11943;52.270;20.978;2023-03-14T16:26:16;10.60;99.90
23532;DHT22;11943;52.270;20.978;2023-03-14T16:28:43;10.60;99.90
23532;DHT22;11943;52.270;20.978;2023-03-14T16:31:12;10.60;99.90
23532;DHT22;11943;52.270;20.978;2023-03-14T16:33:38;10.60;99.90
23532;DHT22;11943;52.270;20.978;2023-03-14T16:36:06;10.60;99.90
23532;DHT22;11943;52.270;20.978;2023-03-14T16:38:36;10.60;99.90
23532;DHT22;11943;52.270;20.978;2023-03-14T16:43:32;10.50;99.90
23532;DHT22;11943;52.270;20.978;2023-03-14T16:45:59;10.50;99.90
23532;DHT22;11943;52.270;20.978;2023-03-14T16:48:26;10.50;99.90
23532;DHT22;11943;52.270;20.978;2023-03-14T16:50:52;10.60;99.90
23532;DHT22;11943;52.270;20.978;2023-03-14T16:53:18;10.50;99.90
23532;DHT22;11943;52.270;20.978;2023-03-14T16:55:44;10.50;99.90